Airfield :
LOGIN :

Register | Disclaimer

   EN    FR    IT 

 










Legend :    VFR   Marginal VFR   IFR   Intensive IFR   Very Intensive IFR
Visi :
Ceiling :
>= 8 km
>= 3000ft
5 to 8 km
1000 to 3000 ft
1500m to 5 km
500 to 1000 ft
800 to 1500m
200 to 500 ft
< 800m
< 200 ft
Symbols :   Thunderstorms  Fog  Heavy snow  Heavy precipitations  Wind > 20 kt
SIGMETs :     Misc.  Thunderstorms  Icing  Turbulence  Mountain Waves  Volcanic Ashes







- Airport Elevation : 245 ft
- IATA code : BIQ
- Download approach charts


LFBZ - Biarritz

CURRENT METAR :
  • 190130Z AUTO 22005KT 190V260 6000 -RA SCT022/// BKN027/// BKN036/// ///TCU 07/06 Q1015 TEMPO 4000 -RA BKN014

EXPIRED METARs :
  • 190100Z AUTO 24004KT 9999 -RA BKN041/// BKN049/// OVC060/// ///TCU 07/06 Q1015 TEMPO 4000 -RA BKN014
  • 190030Z AUTO 23004KT 9999 -RA BKN056/// BKN068/// BKN080/// ///TCU 07/05 Q1015 TEMPO 4000 -RA BKN014
  • 190000Z AUTO 23004KT 9999 RA SCT054/// SCT066/// BKN076/// ///TCU 07/04 Q1016 TEMPO 4000 -RA BKN014
  • 182330Z AUTO 20002KT 9999 FEW042/// SCT058/// BKN074/// ///TCU 07/04 Q1016 TEMPO 4000 -RA BKN014
  • 182300Z AUTO 20003KT CAVOK 06/04 Q1016 NOSIG

TAF TAF LFBZ
Valid from the 19 at 00:00 until the 20 at 00:00 UTC


182300Z 1900/1924 20005KT 9999 BKN030
PROB30
TEMPO 1900/1908 4000 -RA BKN014
PROB30
TEMPO 1908/1912 4000 SHRA BKN020TCU
TEMPO 1921/1924 -RA
No reported NOTAMs for that airfield.



MET'MAP, your aeronautical weather chart ! - Copyright ORBIFLY December 2007 - Disclaimer

ORBIFLY MET'MAP TEAM :

Programming & Development : Alexandra Zaïnal
Concept & Development : Baudouin d'Aumeries
Co-Development & Prog : Marc-Olivier Méhu
Technical & hardware support : Manuel Goepfert

Contact : metmap@orbifly.com




SOURCES & CREDITS :

   NOAA